Terminal Aerodrome Forecast
Issued by NWS

Home | Current Version | Previous Version | Text Only | Print | Product List | Glossary On
Versions: 1 2 3 4 5 6 7 8 9 10 11 12
000
FTUS41 KLWX 181700
TAFMTN
TAF
KMTN 181720Z 1818/1918 13005KT P6SM BKN050
     FM182300 VRB03KT P6SM SCT050
     FM190800 01006KT P6SM SCT050
     FM191700 07007KT P6SM SCT050=

USA.gov is the U.S. government's official web portal to all federal, state and local government web resources and services.